Weather observations for the past three days for
Jackson, Carroll Airport
Metric (Imperial)
Date Time (edt) Wind (kph) Vis. (km) Weather Sky Cond. Temperature (ºC) Relative Humidity Wind Chill (°C) Heat Index (°C) Pressure Precipitation (cm)
Air Dwpt 6 hour altimeter (cm) sea level (mb) 1 hr 3 hr 6 hr
Max. Min.
01 10:53 Calm 16.09 Fair CLR 27.2 22.2 74% 30 76.66 1020.3
01 09:53 Calm 16.09 Fair CLR 25 21.7 82% 26 76.66 1020.3
01 08:53 Calm 16.09 Fair CLR 23.9 21.1 84% 24 76.66 1020.4
01 07:53 Calm 16.09 Fair CLR 22.2 21.1 23.3 21.7 94% 76.63 1020.2
01 06:53 Calm 16.09 Fair CLR 21.7 20.6 94% 76.58 1019.2
01 05:53 Calm 16.09 Fair CLR 21.7 21.1 96% 76.53 1018.7
01 04:53 Calm 16.09 Fair CLR 22.8 21.1 90% 76.5 1018.2
01 03:53 Vrbl 6 16.09 Fair CLR 23.3 21.1 88% 76.48 1018.0
01 02:53 Calm 16.09 Fair CLR 22.8 22.2 96% 76.5 1018.2
01 01:53 Calm 16.09 Fair CLR 22.8 22.2 27.8 22.8 96% 76.53 1018.7
01 00:53 Calm 16.09 Fair CLR 25 21.7 82% 26 76.56 1018.8
31 23:53 Calm 16.09 Fair CLR 25 22.2 85% 26 76.56 1018.9
31 22:53 Calm 16.09 Fair CLR 26.7 21.7 74% 29 76.58 1019.2
31 21:53 Calm 16.09 Fair CLR 26.1 21.7 77% 28 76.53 1018.8
31 20:53 Calm 16.09 Fair CLR 26.7 22.8 79% 29 76.48 1018.0
31 19:53 Calm 16.09 Fair CLR 27.8 22.8 31.7 26.7 74% 31 76.48 1018.2
31 18:53 S 6 16.09 Fair CLR 28.9 23.3 72% 33 76.5 1018.4
31 17:53 Calm 16.09 Fair CLR 29.4 22.8 68% 33 76.53 1018.8
31 16:53 Calm 16.09 Fair CLR 29.4 20.6 59% 32 76.58 1019.1
31 15:53 Calm 16.09 Overcast FEW043 BKN090 OVC120 28.3 20.6 63% 30 76.61 1019.6
31 14:53 Vrbl 6 16.09 Partly Cloudy FEW037 SCT060 31.7 22.2 57% 36 76.61 1019.6
31 13:53 NW 7 16.09 Fair CLR 30 22.2 30.6 21.1 63% 33 76.66 1020.3
31 12:53 Vrbl 7 16.09 Fair CLR 28.9 22.8 70% 32 76.68 1020.8
31 11:53 Calm 16.09 Fair CLR 28.3 22.2 70% 31 76.71 1021.0
31 10:53 Calm 16.09 Fair CLR 26.7 21.7 74% 29 76.71 1020.9
31 09:53 Calm 16.09 Fair CLR 23.3 20.6 85% 76.68 1020.6
31 08:53 Calm 16.09 Fair CLR 21.7 19.4 87% 76.66 1020.6
31 07:53 Calm 16.09 Fair CLR 21.1 19.4 22.8 20.6 90% 76.63 1020.3
31 06:53 Calm 16.09 Partly Cloudy SCT055 21.1 19.4 90% 76.61 1019.7
31 05:53 Calm 16.09 Partly Cloudy SCT055 21.1 20 93% 76.58 1019.2
31 04:53 Calm 16.09 Fair CLR 21.7 19.4 87% 76.56 1018.9
31 03:53 Calm 16.09 Fair CLR 22.2 19.4 84% 76.53 1018.6
31 02:53 Calm 16.09 Fair CLR 22.2 20 87% 76.56 1018.8
31 01:53 Calm 16.09 Fair CLR 22.2 20.6 26.7 22.2 91% 76.56 1019.1
31 00:53 Calm 16.09 Fair CLR 23.3 21.1 88% 76.58 1019.2
30 23:53 Calm 16.09 Fair CLR 23.9 21.1 84% 24 76.58 1019.4
30 22:53 Calm 16.09 Fair CLR 25 21.1 79% 26 76.61 1019.6
30 21:53 Calm 16.09 Fair CLR 26.1 21.1 74% 28 76.58 1019.2
30 20:53 Calm 16.09 Fair CLR 26.1 21.1 74% 28 76.53 1018.8
30 19:53 Calm 16.09 Fair CLR 26.7 21.7 31.1 26.7 74% 29 76.5 1018.5
30 18:53 Calm 16.09 A Few Clouds FEW080 28.9 19.4 57% 30 76.53 1018.6
30 17:53 Calm 16.09 Fair CLR 30.6 20 53% 33 76.53 1018.4
30 16:53 Vrbl 7 16.09 Partly Cloudy SCT050 30.6 19.4 51% 32 76.53 1018.5
30 15:53 Vrbl 6 16.09 Fair CLR 30 20.6 57% 32 76.58 1019.2
30 14:53 Calm 16.09 Fair CLR 30 20.6 57% 32 76.63 1020.0
30 13:53 Vrbl 7 16.09 A Few Clouds FEW049 29.4 20 30 21.1 57% 31 76.68 1020.7
30 12:53 Calm 16.09 A Few Clouds FEW030 30 22.2 63% 33 76.73 1021.4
30 11:53 Calm 16.09 Fair CLR 28.3 21.7 67% 31 76.76 1021.5
30 10:53 S 9 16.09 Fair CLR 26.1 20.6 72% 28 76.73 1021.6
30 09:53 Vrbl 7 16.09 Fair CLR 24.4 20 77% 25 76.71 1021.2
30 08:53 Vrbl 6 16.09 Fair CLR 22.8 19.4 81% 76.68 1021.0
30 07:53 Calm 16.09 A Few Clouds FEW055 21.1 18.9 23.3 20.6 87% 76.68 1020.8
30 06:53 S 6 16.09 Fair CLR 20.6 18.9 90% 76.63 1020.1
30 05:53 S 6 16.09 Fair CLR 20.6 18.9 90% 76.63 1020.0
30 04:53 S 6 16.09 Fair CLR 21.1 18.9 87% 76.63 1019.8
30 03:53 S 6 16.09 Fair CLR 21.1 19.4 90% 76.61 1019.5
30 02:53 SE 6 16.09 Fair CLR 22.2 18.9 82% 76.61 1019.7
30 01:53 S 6 16.09 Fair CLR 22.8 18.9 25.6 22.2 79% 76.63 1019.9
30 00:53 SE 6 16.09 Fair CLR 22.8 18.9 79% 76.63 1020.0
29 23:53 Calm 16.09 Fair CLR 22.8 18.9 79% 76.63 1020.0
29 22:53 Calm 16.09 Fair CLR 23.3 17.8 71% 76.63 1020.0
29 21:53 Calm 16.09 Fair CLR 23.9 17.2 66% 25 76.58 1019.6
29 20:53 Calm 16.09 Fair CLR 25 18.3 66% 26 76.56 1019.3
29 19:53 Calm 16.09 Fair CLR 25.6 18.3 30.6 25.6 64% 27 76.56 1019.2
29 18:53 Calm 16.09 Fair CLR 27.8 17.8 55% 29 76.53 1018.9
29 17:53 Calm 16.09 Fair CLR 28.3 17.8 53% 29 76.53 1018.9
29 16:53 Calm 16.09 Fair CLR 30 17.8 48% 31 76.56 1019.2
29 15:53 SE 6 16.09 Fair CLR 29.4 16.7 46% 30 76.61 1019.7
29 14:53 Calm 16.09 A Few Clouds FEW049 29.4 18.9 53% 31 76.63 1020.2
29 13:53 Calm 16.09 Fair CLR 28.3 17.8 28.3 18.3 53% 29 76.68 1020.6
29 12:53 Calm 16.09 Fair CLR 27.2 19.4 62% 29 76.71 1021.1
29 11:53 Vrbl 6 16.09 Fair CLR 25.6 18.9 67% 27 76.73 1021.5
Date Time (edt) Wind (kph) Vis. (km) Weather Sky Cond. Air Dwpt Max. Min. Relative Humidity Wind Chill (°C) Heat Index (°C) altimeter (cm) sea level (mb) 1 hr 3 hr 6 hr
6 hour
Temperature (ºC) Pressure Precipitation (cm)